Time;durP1;ratioP1;P1;durP2;ratioP2;P2;SDS_P1;SDS_P2;PMS_P1;PMS_P2;Temp;Humidity;BMP_temperature;BMP_pressure;BME280_temperature;BME280_humidity;BME280_pressure;Samples;Min_cycle;Max_cycle;Signal;HPM_P1;HPM_P2
2022/06/29 00:00:17;;;;;;;15.43;3.00;;;;;;;26.00;49.84;98610.97;4953644;28;20031;-49
2022/06/29 00:02:44;;;;;;;46.22;9.07;;;;;;;26.03;50.02;98610.34;4953548;28;20028;-48
2022/06/29 00:05:15;;;;;;;29.30;7.85;;;;;;;26.09;49.68;98606.44;4953499;28;20505;-49
2022/06/29 00:07:42;;;;;;;9.18;2.25;;;;;;;26.07;49.48;98608.66;4953570;29;20034;-48
2022/06/29 00:10:09;;;;;;;6.50;1.60;;;;;;;26.02;48.68;98609.56;4953502;28;20023;-49
2022/06/29 00:12:36;;;;;;;6.20;1.52;;;;;;;25.81;48.54;98608.41;4955203;28;20023;-49
2022/06/29 00:15:02;;;;;;;9.82;2.00;;;;;;;25.38;49.58;98601.50;4956007;29;20083;-49
2022/06/29 00:17:32;;;;;;;9.60;2.20;;;;;;;25.29;50.48;98597.91;4957271;28;20089;-48
2022/06/29 00:20:03;;;;;;;9.63;2.17;;;;;;;25.31;50.34;98603.78;4955834;29;20476;-49
2022/06/29 00:22:30;;;;;;;22.48;3.25;;;;;;;25.37;49.93;98605.28;4955997;29;20034;-48
2022/06/29 00:24:56;;;;;;;11.82;2.83;;;;;;;25.43;50.85;98595.22;4957129;28;20460;-49
2022/06/29 00:27:22;;;;;;;11.70;2.00;;;;;;;25.55;49.46;98598.19;4955804;29;20552;-48
2022/06/29 00:29:48;;;;;;;4.43;1.60;;;;;;;25.58;49.32;98597.59;4956839;28;20114;-49
2022/06/29 00:32:14;;;;;;;12.88;2.65;;;;;;;25.64;49.70;98604.47;4956861;28;20138;-49
2022/06/29 00:34:40;;;;;;;6.68;2.85;;;;;;;25.70;49.10;98594.41;4956992;28;20019;-49
2022/06/29 00:37:06;;;;;;;7.90;2.92;;;;;;;25.54;49.32;98599.31;4955700;29;20110;-49
2022/06/29 00:39:33;;;;;;;8.27;2.17;;;;;;;25.43;49.05;98596.00;4956905;28;20038;-48
2022/06/29 00:42:00;;;;;;;10.82;2.55;;;;;;;25.40;48.74;98593.16;4955614;29;20027;-49
2022/06/29 00:44:25;;;;;;;6.35;2.10;;;;;;;25.33;48.95;98592.75;4956782;28;20063;-48
2022/06/29 00:46:58;;;;;;;6.80;2.20;;;;;;;25.35;48.80;98585.97;4956693;28;20043;-49
2022/06/29 00:49:26;;;;;;;9.68;2.17;;;;;;;25.37;48.84;98591.84;4956738;28;20031;-49
2022/06/29 00:52:08;;;;;;;17.10;2.83;;;;;;;25.28;48.99;98593.66;4955277;29;20456;-48
2022/06/29 00:54:42;;;;;;;6.28;2.15;;;;;;;25.25;48.71;98584.31;4956692;28;20028;-49
2022/06/29 00:57:14;;;;;;;4.53;1.40;;;;;;;25.08;48.03;98584.88;4955314;29;20035;-49
2022/06/29 00:59:49;;;;;;;6.53;1.98;;;;;;;24.88;48.32;98587.94;4955271;29;20062;-49
2022/06/29 01:02:18;;;;;;;11.30;2.45;;;;;;;24.91;49.38;98590.84;4956487;28;20050;-48
2022/06/29 01:04:44;;;;;;;15.35;2.15;;;;;;;25.09;48.33;98594.53;4956411;28;20028;-48
2022/06/29 01:07:15;;;;;;;11.70;1.92;;;;;;;25.09;48.11;98583.78;4956386;28;20055;-49
2022/06/29 01:09:45;;;;;;;3.63;1.13;;;;;;;24.92;47.45;98586.25;4955232;29;20035;-49
2022/06/29 01:12:12;;;;;;;6.93;1.52;;;;;;;24.75;47.90;98597.59;4956325;28;20027;-49
2022/06/29 01:14:42;;;;;;;10.63;2.53;;;;;;;24.64;48.62;98580.84;4956207;28;20059;-49
2022/06/29 01:17:08;;;;;;;14.07;2.63;;;;;;;24.74;48.74;98585.25;4954906;29;20042;-48
2022/06/29 01:19:33;;;;;;;6.60;1.92;;;;;;;24.75;48.05;98581.47;4956236;28;20023;-49
2022/06/29 01:22:10;;;;;;;6.95;1.48;;;;;;;24.60;47.71;98577.16;4956077;28;20114;-48
2022/06/29 01:24:36;;;;;;;4.43;1.52;;;;;;;24.37;47.86;98581.56;4953857;28;20039;-48
2022/06/29 01:27:03;;;;;;;10.98;2.20;;;;;;;24.22;48.33;98581.78;4956024;28;20043;-49
2022/06/29 01:29:29;;;;;;;10.07;2.03;;;;;;;24.21;48.18;98580.22;4955794;28;20142;-49
2022/06/29 01:31:56;;;;;;;9.98;1.88;;;;;;;24.24;48.31;98579.63;4955864;28;20031;-48
2022/06/29 01:34:24;;;;;;;6.45;2.08;;;;;;;24.23;48.59;98578.03;4955906;28;20046;-49
2022/06/29 01:36:49;;;;;;;3.53;1.35;;;;;;;24.24;48.11;98579.63;4955828;28;20401;-49
2022/06/29 01:39:15;;;;;;;9.27;1.50;;;;;;;24.20;48.21;98570.56;4954466;29;20031;-49
2022/06/29 01:41:41;;;;;;;10.88;1.70;;;;;;;24.09;47.94;98573.41;4955716;28;20066;-48
2022/06/29 01:44:07;;;;;;;4.65;1.40;;;;;;;23.91;47.75;98572.34;4954457;29;20489;-49
2022/06/29 01:46:32;;;;;;;13.43;2.40;;;;;;;23.78;47.87;98572.25;4956194;28;20078;-48
2022/06/29 01:48:58;;;;;;;9.73;1.60;;;;;;;23.74;48.18;98572.00;4955567;28;20055;-49
2022/06/29 01:51:24;;;;;;;8.82;1.88;;;;;;;23.79;47.75;98576.56;4954235;29;20039;-49
2022/06/29 01:53:50;;;;;;;13.13;2.03;;;;;;;23.72;47.72;98577.69;4955509;29;20414;-49
2022/06/29 01:56:15;;;;;;;10.73;2.20;;;;;;;23.70;47.56;98571.00;4955518;29;20494;-48
2022/06/29 01:58:41;;;;;;;7.88;1.77;;;;;;;23.69;47.69;98569.41;4954175;29;20572;-48
2022/06/29 02:01:07;;;;;;;13.63;2.15;;;;;;;23.64;47.91;98566.78;4955416;28;20087;-49
2022/06/29 02:03:33;;;;;;;8.25;2.45;;;;;;;23.79;48.25;98566.63;4955428;28;20020;-49
2022/06/29 02:05:59;;;;;;;6.28;1.70;;;;;;;24.08;47.04;98565.66;4955391;28;20027;-48
2022/06/29 02:08:24;;;;;;;6.65;1.40;;;;;;;24.13;46.57;98576.31;4954070;29;20027;-48
2022/06/29 02:10:50;;;;;;;8.48;1.60;;;;;;;24.09;46.69;98562.69;4955163;29;20027;-48
2022/06/29 02:13:16;;;;;;;9.55;2.28;;;;;;;24.10;47.42;98564.25;4953936;29;20019;-48
2022/06/29 02:15:42;;;;;;;8.43;2.17;;;;;;;24.20;47.23;98565.19;4955129;28;20027;-49
2022/06/29 02:18:07;;;;;;;9.48;2.17;;;;;;;24.17;47.47;98563.13;4955159;29;20026;-49
2022/06/29 02:20:33;;;;;;;6.15;2.03;;;;;;;24.01;47.69;98566.03;4955134;29;20102;-47
2022/06/29 02:22:59;;;;;;;4.18;1.58;;;;;;;23.81;48.14;98558.31;4955038;29;20106;-48
2022/06/29 02:25:25;;;;;;;11.52;2.00;;;;;;;23.77;48.20;98555.41;4954996;28;20057;-49
2022/06/29 02:27:50;;;;;;;13.45;2.47;;;;;;;23.78;48.57;98554.28;4954960;29;20027;-49
2022/06/29 02:30:17;;;;;;;9.85;2.13;;;;;;;23.77;49.00;98551.91;4954569;29;20090;-48
2022/06/29 02:35:31;;;;;;;7.38;1.90;;;;;;;23.05;50.57;98560.84;4954647;28;20035;-48
2022/06/29 02:37:56;;;;;;;13.52;2.47;;;;;;;22.87;52.22;98562.34;4954715;28;20424;-48
2022/06/29 02:40:22;;;;;;;8.45;2.28;;;;;;;22.93;52.13;98553.97;4954662;28;20027;-48
2022/06/29 02:42:48;;;;;;;7.35;2.10;;;;;;;23.08;52.17;98555.72;4953330;29;20038;-48
2022/06/29 02:45:14;;;;;;;9.38;1.77;;;;;;;23.20;52.06;98557.19;4954556;29;20477;-49
2022/06/29 02:47:39;;;;;;;20.05;3.08;;;;;;;23.27;52.13;98558.44;4953198;29;20035;-49
2022/06/29 02:50:05;;;;;;;6.32;2.05;;;;;;;23.34;52.27;98558.06;4954532;29;20034;-49
2022/06/29 02:52:31;;;;;;;4.60;1.88;;;;;;;23.36;52.42;98565.81;4953067;29;20089;-49
2022/06/29 02:54:57;;;;;;;4.40;1.88;;;;;;;23.27;52.52;98563.00;4954461;29;20141;-49
2022/06/29 02:57:24;;;;;;;6.95;1.98;;;;;;;23.21;53.00;98566.81;4953070;29;20476;-49
2022/06/29 02:59:51;;;;;;;8.52;2.67;;;;;;;23.11;52.84;98567.72;4954342;29;20410;-49
2022/06/29 03:02:16;;;;;;;10.75;1.98;;;;;;;22.80;53.24;98565.38;4952984;29;20517;-48
2022/06/29 03:04:42;;;;;;;7.30;2.45;;;;;;;22.48;54.58;98556.03;4954245;29;20099;-48
2022/06/29 03:07:08;;;;;;;7.47;1.90;;;;;;;22.36;54.98;98558.28;4952971;29;20386;-48
2022/06/29 03:09:33;;;;;;;4.65;2.22;;;;;;;22.42;55.23;98565.19;4954122;29;20105;-48
2022/06/29 03:11:59;;;;;;;9.50;1.95;;;;;;;22.57;54.93;98563.44;4952785;29;20425;-48
2022/06/29 03:14:25;;;;;;;9.85;2.03;;;;;;;22.70;54.48;98566.25;4954030;29;20023;-48
2022/06/29 03:16:51;;;;;;;8.85;2.28;;;;;;;22.74;53.88;98561.16;4954021;28;20050;-48
2022/06/29 03:19:16;;;;;;;5.95;1.92;;;;;;;22.59;54.46;98564.75;4954081;29;20549;-48
2022/06/29 03:21:42;;;;;;;6.28;2.10;;;;;;;22.67;54.68;98561.47;4952658;29;20027;-49
2022/06/29 03:24:08;;;;;;;6.43;1.90;;;;;;;22.95;53.87;98564.41;4952710;29;20023;-48
2022/06/29 03:26:33;;;;;;;12.95;2.08;;;;;;;23.13;53.80;98561.00;4952617;29;20031;-48
2022/06/29 03:28:59;;;;;;;5.50;1.98;;;;;;;23.21;53.40;98570.28;4952489;29;20031;-50
2022/06/29 03:31:24;;;;;;;7.40;2.35;;;;;;;23.24;53.40;98568.91;4953851;28;20675;-48
2022/06/29 03:33:51;;;;;;;7.63;2.08;;;;;;;23.21;53.04;98569.50;4952549;29;20031;-48
2022/06/29 03:36:16;;;;;;;11.82;2.20;;;;;;;23.12;53.15;98566.66;4953867;28;20031;-48
2022/06/29 03:38:42;;;;;;;9.50;2.03;;;;;;;23.00;53.21;98566.22;4953768;28;20382;-49
2022/06/29 03:41:08;;;;;;;7.30;2.08;;;;;;;22.85;53.56;98564.50;4952539;29;20489;-48
2022/06/29 03:43:33;;;;;;;4.57;1.60;;;;;;;22.84;53.56;98568.25;4953761;28;20027;-48
2022/06/29 03:45:59;;;;;;;4.30;1.73;;;;;;;22.88;53.18;98558.59;4952394;29;20023;-48
2022/06/29 03:48:25;;;;;;;4.88;2.13;;;;;;;22.87;52.61;98557.00;4953178;28;20485;-49
2022/06/29 03:50:51;;;;;;;5.68;1.75;;;;;;;22.41;53.17;98558.22;4952267;29;20031;-48
2022/06/29 03:53:16;;;;;;;11.98;1.70;;;;;;;21.91;54.30;98558.34;4953709;29;20092;-49
2022/06/29 03:55:43;;;;;;;8.80;1.70;;;;;;;21.74;55.38;98556.03;4953648;28;20031;-48
2022/06/29 03:58:08;;;;;;;12.10;2.35;;;;;;;21.68;55.46;98565.16;4953685;28;20408;-49
2022/06/29 04:00:34;;;;;;;8.18;2.25;;;;;;;21.87;55.82;98549.28;4953650;28;20072;-48
2022/06/29 04:03:00;;;;;;;8.95;1.73;;;;;;;22.19;54.77;98549.84;4953633;28;20386;-48
2022/06/29 04:05:26;;;;;;;8.27;2.03;;;;;;;22.27;54.06;98546.59;4953727;29;20485;-49
2022/06/29 04:07:51;;;;;;;15.57;2.25;;;;;;;22.13;54.21;98552.56;4953647;28;20027;-48
2022/06/29 04:10:17;;;;;;;6.57;1.85;;;;;;;22.13;53.74;98549.91;4953519;29;20023;-49
2022/06/29 04:12:43;;;;;;;9.90;2.58;;;;;;;22.26;54.25;98553.81;4953388;29;20397;-48
2022/06/29 04:15:09;;;;;;;7.55;1.77;;;;;;;22.43;53.68;98550.72;4953464;29;20024;-48
2022/06/29 04:17:35;;;;;;;8.80;2.10;;;;;;;22.61;53.29;98556.47;4952155;29;20039;-49
2022/06/29 04:20:03;;;;;;;6.80;1.73;;;;;;;22.71;52.90;98559.81;4953448;28;20019;-48
2022/06/29 04:22:28;;;;;;;10.32;1.95;;;;;;;22.77;52.73;98560.56;4953480;28;20031;-49
2022/06/29 04:24:54;;;;;;;8.48;1.42;;;;;;;22.68;52.41;98556.94;4953735;28;20015;-49
2022/06/29 04:27:20;;;;;;;4.22;1.42;;;;;;;22.34;53.10;98555.09;4953360;29;20027;-48
2022/06/29 04:29:46;;;;;;;7.05;2.28;;;;;;;22.29;53.55;98552.47;4953166;29;20066;-48
2022/06/29 04:32:12;;;;;;;12.38;2.33;;;;;;;22.40;53.14;98553.97;4953291;28;20477;-48
2022/06/29 04:34:37;;;;;;;9.82;2.30;;;;;;;22.35;53.04;98554.00;4952010;29;20037;-49
2022/06/29 04:37:03;;;;;;;8.98;1.77;;;;;;;22.01;53.52;98548.63;4951999;29;20075;-48
2022/06/29 04:39:29;;;;;;;4.95;1.90;;;;;;;21.53;54.88;98555.34;4953288;28;20023;-48
2022/06/29 04:41:55;;;;;;;8.75;2.22;;;;;;;21.33;56.19;98556.22;4951890;29;20051;-48
2022/06/29 04:44:21;;;;;;;19.33;2.33;;;;;;;21.46;56.12;98546.84;4953192;29;20062;-48
2022/06/29 04:46:47;;;;;;;10.55;2.10;;;;;;;21.73;56.01;98557.13;4953238;28;20549;-48
2022/06/29 04:49:13;;;;;;;9.27;2.22;;;;;;;22.16;54.95;98551.22;4953154;29;20027;-49
2022/06/29 04:51:38;;;;;;;9.90;2.17;;;;;;;22.60;54.07;98557.56;4951733;29;20028;-48
2022/06/29 04:54:05;;;;;;;11.18;2.55;;;;;;;22.98;53.07;98546.97;4953118;29;20027;-48
2022/06/29 04:56:33;;;;;;;7.15;1.85;;;;;;;23.24;51.73;98553.66;4951931;29;20024;-48
2022/06/29 04:59:00;;;;;;;9.00;2.08;;;;;;;23.40;51.37;98550.78;4952504;28;20070;-48
2022/06/29 05:01:28;;;;;;;13.75;2.10;;;;;;;23.56;50.66;98546.81;4956458;28;20035;-49
2022/06/29 05:03:55;;;;;;;5.93;2.13;;;;;;;23.80;49.67;98546.75;4955252;29;20031;-48
2022/06/29 05:06:22;;;;;;;10.20;2.28;;;;;;;24.07;49.09;98542.63;4956384;28;20031;-48
2022/06/29 05:08:49;;;;;;;19.67;2.78;;;;;;;24.23;47.99;98540.50;4955110;29;20075;-48
2022/06/29 05:11:15;;;;;;;13.55;2.50;;;;;;;24.40;47.98;98545.28;4956298;28;20020;-49
2022/06/29 05:13:42;;;;;;;13.50;2.30;;;;;;;24.48;47.92;98542.72;4955121;29;20041;-49
2022/06/29 05:16:08;;;;;;;12.75;2.22;;;;;;;24.58;47.55;98541.78;4956217;28;20063;-48
2022/06/29 05:18:35;;;;;;;9.73;2.17;;;;;;;24.47;46.96;98545.72;4956189;28;20031;-48
2022/06/29 05:21:01;;;;;;;8.45;1.90;;;;;;;24.38;46.93;98545.59;4956203;28;20446;-48
2022/06/29 05:23:29;;;;;;;11.68;2.25;;;;;;;24.30;47.36;98555.09;4956123;28;20493;-49
2022/06/29 05:25:55;;;;;;;9.77;2.33;;;;;;;24.27;47.64;98549.53;4955959;28;20034;-48
2022/06/29 05:28:21;;;;;;;8.40;2.85;;;;;;;24.43;47.52;98548.19;4956028;28;20031;-48
2022/06/29 05:30:46;;;;;;;13.32;2.75;;;;;;;24.70;47.10;98552.03;4955788;29;20047;-48
2022/06/29 05:33:12;;;;;;;11.10;2.83;;;;;;;24.88;46.98;98540.41;4954545;29;20023;-49
2022/06/29 05:35:38;;;;;;;15.25;2.47;;;;;;;25.16;46.68;98545.78;4955885;29;20077;-48
2022/06/29 05:38:04;;;;;;;16.33;3.03;;;;;;;25.41;46.08;98546.38;4955857;29;20023;-49
2022/06/29 05:40:30;;;;;;;15.20;2.58;;;;;;;25.62;45.80;98539.47;4954466;29;20059;-49
2022/06/29 05:42:57;;;;;;;9.77;2.53;;;;;;;25.73;45.17;98545.38;4955747;28;20102;-48
2022/06/29 05:45:26;;;;;;;7.40;1.92;;;;;;;25.74;44.67;98538.16;4955770;28;20444;-48
2022/06/29 05:47:53;;;;;;;9.85;2.60;;;;;;;25.66;44.82;98553.88;4955665;28;20035;-49
2022/06/29 05:50:21;;;;;;;16.35;2.60;;;;;;;25.76;44.52;98546.69;4955642;28;20577;-48
2022/06/29 05:52:47;;;;;;;11.43;2.28;;;;;;;25.91;44.20;98549.84;4955571;28;20055;-49
2022/06/29 05:55:12;;;;;;;15.68;2.90;;;;;;;26.16;43.65;98549.53;4955534;28;20062;-49
2022/06/29 05:57:38;;;;;;;10.23;2.72;;;;;;;26.60;42.19;98540.66;4954247;29;20031;-49
2022/06/29 06:00:05;;;;;;;11.65;2.55;;;;;;;27.39;40.05;98547.09;4955454;28;20031;-48
2022/06/29 06:02:31;;;;;;;14.27;2.53;;;;;;;27.74;39.22;98546.34;4955424;28;20371;-48
2022/06/29 06:04:57;;;;;;;17.90;3.20;;;;;;;27.99;38.68;98540.16;4954094;29;20154;-49
2022/06/29 06:07:23;;;;;;;8.50;2.53;;;;;;;28.55;37.76;98542.13;4954039;29;20102;-49
2022/06/29 06:09:49;;;;;;;8.65;2.33;;;;;;;30.60;33.83;98545.16;4954825;28;20033;-48
2022/06/29 06:12:14;;;;;;;7.15;2.00;;;;;;;32.58;29.90;98533.50;4953822;29;20166;-49
2022/06/29 06:14:40;;;;;;;5.22;1.70;;;;;;;34.06;27.53;98526.63;4954235;29;20031;-49
2022/06/29 06:17:06;;;;;;;7.03;2.03;;;;;;;35.22;26.53;98521.94;4955095;29;20030;-49
2022/06/29 06:19:32;;;;;;;36.08;4.45;;;;;;;36.03;25.90;98519.78;4953856;29;20037;-49
2022/06/29 06:21:57;;;;;;;14.38;2.38;;;;;;;36.77;24.24;98524.41;4955280;29;20059;-49
2022/06/29 06:24:23;;;;;;;12.75;2.90;;;;;;;37.14;23.90;98521.50;4954957;29;20500;-49
2022/06/29 06:26:49;;;;;;;27.33;3.70;;;;;;;37.70;22.65;98524.16;4953661;29;20090;-48
2022/06/29 06:29:14;;;;;;;10.57;1.98;;;;;;;37.87;21.90;98523.41;4954655;29;20079;-49
2022/06/29 06:31:40;;;;;;;16.98;3.05;;;;;;;38.07;21.83;98515.63;4954800;29;20038;-49
2022/06/29 06:34:06;;;;;;;10.05;1.77;;;;;;;38.27;20.58;98507.81;4954787;29;20023;-50
2022/06/29 06:36:31;;;;;;;6.65;1.80;;;;;;;37.98;19.82;98517.97;4954762;29;20024;-49
2022/06/29 06:38:57;;;;;;;8.98;2.33;;;;;;;38.00;19.78;98521.09;4953406;29;20397;-49
2022/06/29 06:41:23;;;;;;;8.80;1.67;;;;;;;38.29;19.95;98518.41;4953370;29;20027;-49
2022/06/29 06:43:59;;;;;;;5.80;1.58;;;;;;;38.87;19.39;98517.22;4953366;29;20099;-49
2022/06/29 06:46:26;;;;;;;14.63;2.90;;;;;;;39.48;18.90;98525.38;4953361;29;20067;-50
2022/06/29 06:48:52;;;;;;;12.00;1.88;;;;;;;39.85;18.13;98529.50;4954570;28;20406;-49
2022/06/29 06:51:23;;;;;;;8.55;2.22;;;;;;;39.73;18.08;98527.22;4953129;29;20027;-49
2022/06/29 06:53:50;;;;;;;2.35;1.13;;;;;;;39.86;17.62;98520.06;4954611;28;20042;-49
2022/06/29 06:56:16;;;;;;;6.00;1.70;;;;;;;39.87;17.82;98520.88;4954464;28;20031;-49
2022/06/29 06:58:42;;;;;;;6.85;1.60;;;;;;;40.31;17.46;98522.97;4954527;28;20106;-48
2022/06/29 07:01:09;;;;;;;11.23;1.80;;;;;;;40.54;17.36;98524.34;4953145;29;20027;-48
2022/06/29 07:03:36;;;;;;;7.25;1.60;;;;;;;40.63;17.33;98521.13;4953117;29;20450;-48
2022/06/29 07:06:04;;;;;;;5.05;1.30;;;;;;;40.75;16.85;98528.91;4954361;28;20081;-48
2022/06/29 07:08:31;;;;;;;10.48;1.85;;;;;;;40.93;16.43;98520.47;4954282;28;20019;-53
2022/06/29 07:11:01;;;;;;;8.98;1.67;;;;;;;40.92;15.80;98522.44;4952896;29;20034;-51
2022/06/29 07:13:27;;;;;;;6.78;1.30;;;;;;;40.92;15.88;98525.19;4953014;29;20417;-52
2022/06/29 07:15:53;;;;;;;5.07;1.30;;;;;;;40.83;15.98;98541.41;4954174;28;20098;-51
2022/06/29 07:18:19;;;;;;;5.43;1.48;;;;;;;40.66;16.14;98534.84;4954062;28;20027;-50
2022/06/29 07:20:45;;;;;;;11.77;2.00;;;;;;;40.16;17.00;98532.47;4953969;28;20019;-52
2022/06/29 07:23:11;;;;;;;7.90;1.70;;;;;;;39.68;17.11;98538.59;4952161;29;20023;-52
2022/06/29 07:25:37;;;;;;;7.88;1.65;;;;;;;38.88;17.76;98535.28;4953979;29;20051;-50
2022/06/29 07:28:02;;;;;;;10.55;1.98;;;;;;;38.19;18.43;98530.94;4952607;29;20497;-49
2022/06/29 07:30:28;;;;;;;8.63;1.38;;;;;;;38.15;18.02;98532.88;4952428;29;20055;-48
2022/06/29 07:32:54;;;;;;;6.35;1.45;;;;;;;38.24;18.60;98529.78;4952511;29;20077;-49
2022/06/29 07:35:20;;;;;;;8.10;1.33;;;;;;;38.36;18.81;98535.66;4953853;28;20068;-49
2022/06/29 07:37:46;;;;;;;9.55;1.45;;;;;;;38.45;18.82;98529.78;4952566;29;20024;-49
2022/06/29 07:40:12;;;;;;;10.38;1.58;;;;;;;38.45;18.70;98532.50;4954059;29;20031;-49
2022/06/29 07:42:38;;;;;;;5.63;1.63;;;;;;;38.49;19.04;98530.56;4953818;28;20023;-49
2022/06/29 07:45:06;;;;;;;10.35;1.77;;;;;;;38.69;19.40;98530.97;4953803;28;20404;-49
2022/06/29 07:47:32;;;;;;;7.35;1.90;;;;;;;39.15;18.91;98535.63;4953748;28;20441;-49
2022/06/29 07:49:58;;;;;;;9.00;1.67;;;;;;;39.74;18.44;98528.75;4952475;29;20094;-49
2022/06/29 07:52:24;;;;;;;10.73;1.95;;;;;;;39.92;18.31;98520.44;4952360;29;20026;-49
2022/06/29 07:54:50;;;;;;;7.97;1.60;;;;;;;40.47;17.89;98527.94;4953685;28;20027;-49
2022/06/29 07:57:17;;;;;;;11.75;1.83;;;;;;;41.06;17.61;98520.72;4953637;28;20050;-49
2022/06/29 07:59:45;;;;;;;11.70;2.50;;;;;;;41.50;17.19;98522.59;4953632;28;20051;-49
2022/06/29 08:02:11;;;;;;;6.20;1.40;;;;;;;41.86;16.67;98516.63;4953540;28;20024;-51
2022/06/29 08:04:36;;;;;;;7.97;1.73;;;;;;;42.13;16.61;98524.13;4952337;29;20028;-51
2022/06/29 08:07:02;;;;;;;5.75;1.70;;;;;;;42.35;16.70;98515.53;4953545;29;20074;-50
2022/06/29 08:09:28;;;;;;;5.10;1.40;;;;;;;42.45;16.52;98520.13;4953624;28;20123;-52
2022/06/29 08:11:54;;;;;;;6.32;1.40;;;;;;;42.57;16.11;98519.50;4953754;29;20110;-51
2022/06/29 08:14:19;;;;;;;13.82;2.35;;;;;;;42.39;17.04;98521.75;4953481;29;20031;-51
2022/06/29 08:16:45;;;;;;;4.40;1.30;;;;;;;42.33;16.66;98520.69;4953530;28;20131;-51
2022/06/29 08:19:11;;;;;;;4.68;1.58;;;;;;;42.33;17.04;98515.94;4952150;29;20031;-52
2022/06/29 08:21:37;;;;;;;13.18;2.30;;;;;;;42.63;16.82;98514.28;4952073;29;20114;-52
2022/06/29 08:24:02;;;;;;;8.55;1.83;;;;;;;42.89;16.08;98515.44;4953464;28;20020;-52
2022/06/29 08:26:28;;;;;;;2.33;1.20;;;;;;;43.19;15.75;98508.91;4953416;28;20078;-51
2022/06/29 08:28:54;;;;;;;8.38;1.55;;;;;;;43.14;16.32;98503.09;4968191;28;20066;-51
2022/06/29 08:31:19;;;;;;;44.90;5.00;;;;;;;43.01;16.58;98501.00;4951798;29;20047;-50
2022/06/29 08:33:46;;;;;;;10.70;2.10;;;;;;;42.79;16.68;98508.09;4955255;28;20027;-52
2022/06/29 08:36:12;;;;;;;2.67;1.20;;;;;;;43.18;16.39;98503.81;4956956;28;20023;-51
2022/06/29 08:38:39;;;;;;;19.70;1.88;;;;;;;43.58;16.55;98501.81;4956960;28;20560;-52
2022/06/29 08:41:06;;;;;;;10.85;1.75;;;;;;;43.94;15.79;98500.25;4956875;28;20047;-51
2022/06/29 08:43:32;;;;;;;10.23;2.28;;;;;;;44.00;16.37;98498.53;4955567;29;20560;-51
2022/06/29 08:45:58;;;;;;;9.38;1.60;;;;;;;43.87;16.39;98504.75;4956629;28;20386;-52
2022/06/29 08:48:24;;;;;;;8.20;1.40;;;;;;;43.77;16.33;98503.03;4955449;29;20544;-52
2022/06/29 08:50:52;;;;;;;23.33;3.13;;;;;;;43.98;16.54;98501.72;4956714;28;20027;-52
2022/06/29 08:53:18;;;;;;;7.40;1.77;;;;;;;44.01;16.15;98505.63;4939529;29;20441;-51
2022/06/29 08:55:48;;;;;;;11.77;1.75;;;;;;;43.82;16.49;98505.25;4956690;28;20537;-51
2022/06/29 08:58:17;;;;;;;7.13;1.40;;;;;;;44.15;15.64;98505.31;4956635;28;20035;-52
2022/06/29 09:00:43;;;;;;;3.92;1.52;;;;;;;43.85;16.25;98498.88;4956534;28;20043;-51
2022/06/29 09:03:10;;;;;;;4.90;1.38;;;;;;;43.49;16.30;98502.41;4955190;29;20557;-52
2022/06/29 09:05:37;;;;;;;6.55;1.23;;;;;;;43.15;16.72;98496.41;4955275;29;20031;-52
2022/06/29 09:08:03;;;;;;;6.30;1.77;;;;;;;43.40;16.41;98501.41;4956374;28;20023;-51
2022/06/29 09:10:30;;;;;;;5.10;1.25;;;;;;;43.78;16.06;98496.25;4956355;28;20565;-52
2022/06/29 09:13:01;;;;;;;6.40;1.77;;;;;;;43.98;16.19;98495.44;4956253;28;20053;-52
2022/06/29 09:15:38;;;;;;;12.27;2.00;;;;;;;43.72;16.63;98495.22;4956281;28;20074;-52
2022/06/29 09:18:30;;;;;;;10.15;1.38;;;;;;;43.53;16.88;98505.09;4955072;29;20027;-51
2022/06/29 09:21:04;;;;;;;3.97;1.35;;;;;;;43.75;16.52;98491.59;4956240;28;20027;-51
2022/06/29 09:23:31;;;;;;;13.88;1.90;;;;;;;43.77;16.62;98489.19;4954884;29;20538;-52
2022/06/29 09:25:57;;;;;;;13.85;3.15;;;;;;;43.46;16.61;98500.47;4954881;29;20074;-51
2022/06/29 09:28:32;;;;;;;11.77;1.73;;;;;;;43.84;16.56;98491.00;4956106;28;20083;-52
2022/06/29 09:30:58;;;;;;;9.15;2.28;;;;;;;44.30;16.31;98496.66;4955811;28;20047;-52
2022/06/29 09:33:27;;;;;;;11.05;3.00;;;;;;;44.67;16.10;98490.59;4954626;29;20113;-51
2022/06/29 09:36:08;;;;;;;7.07;1.20;;;;;;;44.28;16.11;98491.56;4955944;28;20114;-53
2022/06/29 09:38:34;;;;;;;9.85;2.83;;;;;;;43.78;17.19;98485.22;4954569;29;20529;-52
2022/06/29 09:41:10;;;;;;;8.35;1.40;;;;;;;43.91;16.61;98479.00;4955854;28;20027;-52
2022/06/29 09:43:46;;;;;;;8.07;1.83;;;;;;;44.15;16.51;98480.44;4955788;28;20038;-52
2022/06/29 09:46:14;;;;;;;6.60;1.40;;;;;;;44.49;15.90;98476.41;4954885;28;20501;-52
2022/06/29 09:48:41;;;;;;;16.88;1.73;;;;;;;44.80;15.84;98482.31;4955707;28;20531;-52
2022/06/29 09:57:35;;;;;;;9.82;2.00;;;;;;;43.92;16.76;98472.25;4955827;29;20032;-52
2022/06/29 10:02:50;;;;;;;9.50;2.08;;;;;;;43.77;17.38;98478.13;4955734;29;20131;-52
2022/06/29 10:05:17;;;;;;;10.38;2.58;;;;;;;43.37;17.26;98480.19;4955401;28;20103;-53
2022/06/29 10:07:48;;;;;;;6.47;1.73;;;;;;;43.28;17.57;98478.75;4955368;28;20023;-51
2022/06/29 10:10:17;;;;;;;6.13;1.38;;;;;;;42.69;17.56;98482.25;4955270;28;20082;-53
2022/06/29 10:16:00;;;;;;;6.38;1.73;;;;;;;41.98;18.65;98471.16;4955452;29;20050;-52
2022/06/29 10:18:29;;;;;;;6.60;1.58;;;;;;;42.58;17.98;98479.69;4955180;29;20034;-52
2022/06/29 10:20:57;;;;;;;6.03;1.60;;;;;;;42.87;17.92;98468.13;4955080;29;20114;-52
2022/06/29 10:24:01;;;;;;;13.13;2.80;;;;;;;43.64;17.48;98472.44;4955056;28;20027;-53
2022/06/29 10:26:35;;;;;;;;;;;;;;;44.03;17.14;98470.00;4896243;29;20044;-52
2022/06/29 10:29:09;;;;;;;;;;;;;;;44.20;17.08;98466.06;4896030;29;19911;-52
2022/06/29 10:31:50;;;;;;;6.38;1.52;;;;;;;44.11;16.59;98468.66;4895765;29;19963;-52
2022/06/29 10:34:31;;;;;;;5.63;1.20;;;;;;;43.67;16.70;98465.34;4895676;29;20041;-52
2022/06/29 10:37:15;;;;;;;5.40;1.45;;;;;;;42.80;17.48;98465.47;4895627;29;20503;-52
2022/06/29 10:39:49;;;;;;;7.78;1.25;;;;;;;41.57;18.53;98474.09;4895602;29;20036;-51
2022/06/29 10:45:06;;;;;;;3.45;1.38;;;;;;;39.38;20.80;98471.22;4895764;29;20055;-51
2022/06/29 10:47:33;;;;;;;4.30;1.40;;;;;;;40.21;20.43;98465.28;4895357;29;20040;-50
2022/06/29 10:50:20;;;;;;;7.47;1.80;;;;;;;41.45;19.25;98462.44;4879719;29;20029;-52
2022/06/29 10:52:48;;;;;;;9.80;1.50;;;;;;;42.62;18.38;98449.25;4895274;29;20037;-51
2022/06/29 10:55:15;;;;;;;9.27;1.75;;;;;;;43.22;17.68;98447.28;4895373;29;20028;-52
2022/06/29 10:57:43;;;;;;;8.75;1.40;;;;;;;43.88;17.07;98451.00;4879542;29;20063;-53
2022/06/29 11:03:54;;;;;;;2.35;1.00;;;;;;;44.47;16.16;98438.13;4895077;29;20084;-52
2022/06/29 11:12:01;;;;;;;6.40;1.45;;;;;;;39.07;20.44;98435.28;4895008;29;20442;-52
2022/06/29 11:17:39;;;;;;;;;;;;;;;39.11;21.12;98432.53;4895656;29;20571;-52
2022/06/29 11:19:56;;;;;;;6.13;1.20;;;;;;;40.10;19.64;98435.09;4894823;29;19915;-52
2022/06/29 11:22:22;;;;;;;4.50;1.15;;;;;;;41.08;18.49;98431.00;4894880;29;20035;-52
2022/06/29 11:24:59;;;;;;;9.48;2.30;;;;;;;42.01;18.08;98422.66;4879175;29;20032;-52
2022/06/29 11:27:30;;;;;;;17.40;3.13;;;;;;;42.29;18.51;98424.97;4894877;29;20519;-52
2022/06/29 11:29:56;;;;;;;5.18;1.10;;;;;;;42.81;16.66;98429.16;4894581;29;20056;-52
2022/06/29 11:32:33;;;;;;;7.40;1.35;;;;;;;42.64;17.26;98428.31;4894723;29;20043;-52
2022/06/29 11:34:59;;;;;;;2.35;0.90;;;;;;;42.54;17.27;98409.97;4894849;29;20039;-52
2022/06/29 11:37:25;;;;;;;4.55;1.05;;;;;;;42.21;16.99;98418.00;4894689;29;20041;-52
2022/06/29 11:39:51;;;;;;;5.38;1.40;;;;;;;41.43;17.90;98423.50;4925100;29;20035;-51
2022/06/29 11:45:14;;;;;;;5.15;1.60;;;;;;;40.25;19.56;98419.28;4954099;29;20034;-51
2022/06/29 11:47:52;;;;;;;2.90;1.13;;;;;;;40.58;18.96;98404.03;4952488;29;20031;-52
2022/06/29 11:50:19;;;;;;;2.38;0.90;;;;;;;40.82;18.65;98402.22;4953701;28;20070;-52
2022/06/29 11:52:48;;;;;;;4.55;1.20;;;;;;;41.38;18.12;98406.69;4953928;28;20489;-52
2022/06/29 11:55:14;;;;;;;5.25;1.20;;;;;;;41.67;17.68;98404.28;4953752;28;20062;-52
2022/06/29 11:57:40;;;;;;;2.13;1.10;;;;;;;41.67;17.80;98401.53;4953716;28;20027;-52
2022/06/29 12:00:08;;;;;;;9.90;2.35;;;;;;;41.80;18.22;98394.25;4953693;28;20501;-52
2022/06/29 12:02:34;;;;;;;3.60;1.10;;;;;;;42.21;17.30;98386.91;4953645;28;20028;-53
2022/06/29 12:05:02;;;;;;;6.88;1.33;;;;;;;42.51;17.24;98394.25;4952339;29;20078;-51